createdAt,value
2022-10-18T00:02:15.323Z,42.78
2022-10-18T00:05:02.192Z,29.02
2022-10-18T00:07:42.231Z,30.70
2022-10-18T00:10:31.181Z,33.33
2022-10-18T00:13:13.718Z,38.63
2022-10-18T00:16:02.191Z,30.10
2022-10-18T00:18:42.261Z,27.52
2022-10-18T00:21:28.196Z,34.33
2022-10-18T00:24:08.186Z,28.25
2022-10-18T00:26:48.200Z,30.63
2022-10-18T00:29:35.202Z,31.17
2022-10-18T00:32:15.209Z,41.00
2022-10-18T00:35:09.205Z,30.67
2022-10-18T00:37:56.195Z,33.85
2022-10-18T00:40:36.206Z,47.53
2022-10-18T00:43:31.202Z,26.02
2022-10-18T00:46:25.225Z,36.55
2022-10-18T00:49:25.191Z,42.95
2022-10-18T00:52:20.193Z,30.20
2022-10-18T00:54:55.280Z,31.75
2022-10-18T00:57:43.255Z,40.22
2022-10-18T01:00:17.324Z,34.47
2022-10-18T01:03:05.216Z,25.92
2022-10-18T01:05:39.259Z,30.10
2022-10-18T01:08:57.215Z,34.75
2022-10-18T01:11:42.279Z,25.33
2022-10-18T01:14:47.220Z,24.23
2022-10-18T01:17:34.408Z,36.30
2022-10-18T01:21:01.256Z,35.50
2022-10-18T01:24:13.206Z,31.88
2022-10-18T01:27:22.220Z,29.63
2022-10-18T01:29:58.295Z,29.02
2022-10-18T01:32:54.224Z,24.75
2022-10-18T01:35:41.225Z,26.60
2022-10-18T01:38:32.248Z,21.48
2022-10-18T01:41:13.105Z,30.65
2022-10-18T01:44:11.223Z,25.92
2022-10-18T01:46:48.309Z,25.90
2022-10-18T01:49:35.214Z,27.92
2022-10-18T01:52:15.245Z,26.63
2022-10-18T01:55:03.241Z,27.52
2022-10-18T01:57:46.213Z,24.35
2022-10-18T02:00:43.270Z,29.00
2022-10-18T02:03:35.215Z,24.92
2022-10-18T02:06:29.239Z,40.65
2022-10-18T02:09:20.230Z,26.08
2022-10-18T02:12:04.255Z,33.78
2022-10-18T02:14:52.247Z,25.15
2022-10-18T02:17:28.315Z,33.53
2022-10-18T02:20:16.254Z,25.20
2022-10-18T02:22:58.241Z,47.20
2022-10-18T02:25:53.241Z,26.23
2022-10-18T02:28:40.249Z,24.63
2022-10-18T02:31:35.258Z,25.20
2022-10-18T02:34:37.237Z,27.52
2022-10-18T02:37:31.259Z,28.02
2022-10-18T02:40:18.238Z,23.90
2022-10-18T02:43:04.245Z,29.40
2022-10-18T02:45:59.257Z,22.08
2022-10-18T02:48:53.245Z,23.30
2022-10-18T02:51:41.257Z,23.70
2022-10-18T02:54:14.335Z,37.28
2022-10-18T02:57:01.269Z,29.60
2022-10-18T02:59:41.258Z,27.38
2022-10-18T03:02:28.258Z,25.45
2022-10-18T03:05:08.274Z,25.95
2022-10-18T03:07:55.252Z,23.08
2022-10-18T03:10:28.356Z,24.25
2022-10-18T03:13:15.277Z,24.30
2022-10-18T03:15:48.643Z,29.00
2022-10-18T03:18:35.258Z,22.67
2022-10-18T03:21:13.342Z,25.65
2022-10-18T03:24:00.276Z,42.20
2022-10-18T03:26:33.336Z,34.42
2022-10-18T03:29:20.277Z,32.67
2022-10-18T03:31:53.350Z,30.98
2022-10-18T03:34:40.255Z,25.00
2022-10-18T03:37:13.408Z,24.67
2022-10-18T03:40:00.268Z,23.33
2022-10-18T03:42:33.620Z,25.42
2022-10-18T03:45:20.273Z,25.70
2022-10-18T03:47:53.335Z,22.55
2022-10-18T03:50:40.301Z,22.73
2022-10-18T03:53:13.356Z,23.42
2022-10-18T03:56:02.287Z,24.75
2022-10-18T03:58:42.307Z,25.60
2022-10-18T04:01:36.379Z,35.35
2022-10-18T04:04:30.288Z,27.83
2022-10-18T04:07:24.308Z,33.55
2022-10-18T04:10:11.294Z,42.22
2022-10-18T04:12:51.278Z,36.15
2022-10-18T04:15:38.297Z,40.83
2022-10-18T04:18:18.279Z,32.33
2022-10-18T04:21:05.318Z,37.65
2022-10-18T04:23:38.999Z,34.53
2022-10-18T04:26:25.302Z,37.50
2022-10-18T04:29:05.366Z,42.40
2022-10-18T04:31:52.302Z,36.47
2022-10-18T04:34:25.450Z,36.47
2022-10-18T04:37:12.346Z,40.10
2022-10-18T04:39:55.285Z,32.53
2022-10-18T04:42:49.322Z,41.60
2022-10-18T04:45:36.293Z,47.97
2022-10-18T04:48:17.398Z,29.85
2022-10-18T04:51:11.336Z,35.08
2022-10-18T04:54:05.323Z,41.35
2022-10-18T04:56:59.300Z,34.65
2022-10-18T04:59:46.299Z,35.97
2022-10-18T05:02:26.313Z,27.10
2022-10-18T05:05:14.303Z,34.13
2022-10-18T05:07:54.308Z,24.45
2022-10-18T05:10:48.314Z,25.05
2022-10-18T05:13:43.391Z,24.30
2022-10-18T05:16:39.318Z,25.80
2022-10-18T05:19:26.301Z,23.80
2022-10-18T05:21:59.409Z,31.15
2022-10-18T05:24:46.309Z,27.52
2022-10-18T05:27:19.391Z,38.05
2022-10-18T05:30:06.323Z,32.42
2022-10-18T05:32:46.328Z,20.95
2022-10-18T05:35:33.330Z,26.08
2022-10-18T05:38:10.375Z,23.17
2022-10-18T05:40:57.348Z,25.48
2022-10-18T05:43:37.318Z,25.48
2022-10-18T05:46:31.337Z,24.13
2022-10-18T05:49:26.353Z,39.03
2022-10-18T05:52:20.347Z,25.40
2022-10-18T05:55:07.342Z,27.80
2022-10-18T05:57:40.383Z,38.85
2022-10-18T06:00:27.378Z,29.63
2022-10-18T06:03:00.676Z,29.02
2022-10-18T06:05:47.346Z,32.42
2022-10-18T06:08:20.447Z,37.97
2022-10-18T06:11:07.356Z,27.85
2022-10-18T06:13:40.598Z,24.88
2022-10-18T06:16:32.466Z,32.22
2022-10-18T06:19:13.364Z,28.75
2022-10-18T06:22:07.347Z,36.67
2022-10-18T06:24:57.197Z,28.63
2022-10-18T06:27:31.949Z,38.50
2022-10-18T06:30:19.344Z,33.58
2022-10-18T06:32:52.428Z,30.85
2022-10-18T06:35:39.353Z,29.45
2022-10-18T06:38:12.433Z,34.00
2022-10-18T06:40:59.338Z,31.95
2022-10-18T06:43:40.371Z,25.50
2022-10-18T06:46:34.359Z,29.05
2022-10-18T06:49:22.355Z,26.98
2022-10-18T06:51:55.497Z,32.17
2022-10-18T06:54:44.232Z,25.27
2022-10-18T06:57:18.432Z,25.25
2022-10-18T07:00:05.357Z,21.33
2022-10-18T07:02:41.257Z,26.95
2022-10-18T07:05:28.388Z,23.50
2022-10-18T07:08:01.609Z,30.98
2022-10-18T07:10:48.395Z,27.48
2022-10-18T07:13:32.322Z,30.38
2022-10-18T07:16:28.344Z,32.67
2022-10-18T07:19:15.371Z,34.45
2022-10-18T07:21:48.433Z,35.45
2022-10-18T07:24:35.379Z,41.90
2022-10-18T07:27:08.446Z,34.47
2022-10-18T07:29:56.394Z,35.08
2022-10-18T07:32:36.391Z,29.27
2022-10-18T07:35:23.368Z,33.63
2022-10-18T07:38:03.396Z,34.55
2022-10-18T07:40:50.364Z,35.00
2022-10-18T07:43:30.389Z,30.50
2022-10-18T07:46:24.385Z,33.85
2022-10-18T07:49:18.372Z,30.95
2022-10-18T07:52:05.381Z,32.63
2022-10-18T07:54:38.553Z,31.52
2022-10-18T07:57:25.388Z,38.47
2022-10-18T07:59:58.463Z,31.33
2022-10-18T08:02:45.394Z,30.98
2022-10-18T08:05:18.461Z,33.22
2022-10-18T08:08:07.939Z,33.40
2022-10-18T08:10:49.377Z,30.73
2022-10-18T08:13:37.388Z,28.20
2022-10-18T08:16:23.444Z,29.17
2022-10-18T08:19:17.389Z,29.20
2022-10-18T08:22:04.424Z,30.70
2022-10-18T08:24:37.461Z,26.52
2022-10-18T08:27:24.395Z,28.63
2022-10-18T08:29:59.748Z,27.40
2022-10-18T08:32:46.383Z,25.60
2022-10-18T08:35:19.521Z,26.73
2022-10-18T08:38:06.406Z,26.63
2022-10-18T08:40:41.461Z,26.17
2022-10-18T08:43:47.419Z,24.77
2022-10-18T08:46:20.470Z,24.25
2022-10-18T08:49:08.412Z,30.30
2022-10-18T08:51:58.407Z,25.77
2022-10-18T08:55:03.424Z,24.25
2022-10-18T08:57:50.417Z,25.55
2022-10-18T09:00:34.856Z,25.50
2022-10-18T09:04:08.416Z,20.98
2022-10-18T09:07:05.477Z,22.05
2022-10-18T09:10:01.430Z,25.00
2022-10-18T09:13:14.417Z,22.63
2022-10-18T09:16:03.770Z,21.13
2022-10-18T09:19:09.425Z,24.85
2022-10-18T09:22:07.484Z,23.00
2022-10-18T09:25:37.410Z,21.08
2022-10-18T09:28:46.513Z,19.10
2022-10-18T09:31:33.450Z,21.38
2022-10-18T09:34:15.505Z,19.20
2022-10-18T09:37:03.443Z,20.23
2022-10-18T09:39:41.507Z,21.40
2022-10-18T09:42:41.429Z,19.58
2022-10-18T09:45:46.430Z,20.85
2022-10-18T09:49:00.456Z,21.15
2022-10-18T09:51:49.421Z,20.63
2022-10-18T09:54:25.578Z,21.17
2022-10-18T09:57:31.737Z,20.73
2022-10-18T10:00:13.448Z,23.08
2022-10-18T10:03:00.454Z,21.77
2022-10-18T10:05:40.437Z,20.40
2022-10-18T10:08:46.459Z,20.45
2022-10-18T10:11:43.450Z,21.98
2022-10-18T10:14:24.187Z,20.75
2022-10-18T10:17:27.456Z,23.02
2022-10-18T10:20:12.471Z,20.33
2022-10-18T10:23:06.500Z,17.73
2022-10-18T10:25:59.476Z,23.48
2022-10-18T10:28:39.587Z,19.35
2022-10-18T10:31:36.456Z,19.55
2022-10-18T10:34:12.534Z,21.20
2022-10-18T10:37:01.462Z,20.95
2022-10-18T10:39:34.549Z,21.35
2022-10-18T10:42:28.461Z,20.17
2022-10-18T10:45:26.476Z,21.77
2022-10-18T10:48:28.740Z,22.58
2022-10-18T10:51:16.557Z,21.23
2022-10-18T10:54:09.480Z,20.83
2022-10-18T10:56:53.472Z,22.02
2022-10-18T10:59:57.481Z,20.75
2022-10-18T11:02:55.396Z,21.55
2022-10-18T11:05:37.543Z,19.40
2022-10-18T11:08:30.471Z,19.00
2022-10-18T11:11:27.775Z,21.25
2022-10-18T11:14:30.488Z,18.13
2022-10-18T11:17:25.469Z,19.50
2022-10-18T11:20:18.492Z,20.25
2022-10-18T11:23:04.483Z,18.85
2022-10-18T11:26:22.484Z,17.50
2022-10-18T11:29:30.500Z,18.02
2022-10-18T11:32:46.503Z,18.50
2022-10-18T11:36:02.862Z,17.58
2022-10-18T11:39:05.508Z,18.63
2022-10-18T11:42:06.537Z,16.77
2022-10-18T11:45:23.531Z,19.60
2022-10-18T11:48:25.490Z,22.73
2022-10-18T11:51:11.522Z,20.70
2022-10-18T11:54:29.542Z,19.10
2022-10-18T11:57:58.513Z,18.52
2022-10-18T12:01:01.540Z,18.20
2022-10-18T12:04:04.521Z,16.75
2022-10-18T12:06:50.513Z,17.95
2022-10-18T12:12:30.853Z,17.45
2022-10-18T12:15:22.501Z,17.40
2022-10-18T12:18:33.508Z,17.70
2022-10-18T12:21:27.503Z,17.60
2022-10-18T12:24:22.541Z,21.27
2022-10-18T12:27:07.511Z,23.10
2022-10-18T12:30:13.542Z,19.35
2022-10-18T12:33:03.447Z,20.60
2022-10-18T12:36:01.539Z,20.92
2022-10-18T12:38:52.531Z,21.95
2022-10-18T12:41:49.536Z,22.30
2022-10-18T12:44:48.526Z,22.88
2022-10-18T12:47:43.535Z,22.27
2022-10-18T12:50:38.539Z,22.13
2022-10-18T12:53:14.618Z,23.45
2022-10-18T12:56:01.549Z,24.17
2022-10-18T12:58:37.614Z,28.27
2022-10-18T13:01:24.632Z,25.13
2022-10-18T13:04:01.705Z,23.35
2022-10-18T13:07:20.535Z,32.28
2022-10-18T13:10:25.536Z,32.08
2022-10-18T13:13:39.284Z,22.95
2022-10-18T13:16:31.632Z,22.77
2022-10-18T13:19:27.540Z,28.80
2022-10-18T13:22:15.634Z,28.13
2022-10-18T13:25:28.557Z,28.27
2022-10-18T13:28:14.610Z,28.92
2022-10-18T13:31:26.550Z,25.80
2022-10-18T13:34:31.561Z,24.75
2022-10-18T13:37:24.636Z,23.55
2022-10-18T13:40:31.571Z,25.83
2022-10-18T13:43:43.648Z,45.08
2022-10-18T13:46:39.566Z,29.05
2022-10-18T13:49:41.717Z,29.15
2022-10-18T13:52:54.551Z,26.48
2022-10-18T13:55:59.576Z,22.83
2022-10-18T13:59:23.597Z,22.30
2022-10-18T14:02:50.052Z,20.60
2022-10-18T14:05:28.829Z,21.50
2022-10-18T14:08:24.670Z,24.33
2022-10-18T14:11:35.663Z,23.27
2022-10-18T14:14:36.590Z,24.77
2022-10-18T14:17:29.703Z,31.85
2022-10-18T14:20:49.594Z,25.45
2022-10-18T14:23:42.573Z,31.90
2022-10-18T14:26:29.672Z,27.55
2022-10-18T14:29:20.733Z,26.05
2022-10-18T14:32:14.566Z,26.48
2022-10-18T14:35:31.211Z,28.55
2022-10-18T14:38:05.583Z,24.23
2022-10-18T14:40:52.592Z,24.50
2022-10-18T14:43:26.661Z,25.60
2022-10-18T14:46:22.609Z,25.83
2022-10-18T14:49:13.667Z,26.17
2022-10-18T14:52:04.595Z,31.70
2022-10-18T14:54:47.598Z,32.40
2022-10-18T14:57:44.602Z,25.95
2022-10-18T15:00:47.744Z,24.33
2022-10-18T15:03:30.596Z,23.92
2022-10-18T15:06:26.626Z,32.47
2022-10-18T15:09:10.611Z,25.63
2022-10-18T15:12:07.622Z,25.05
2022-10-18T15:14:54.623Z,24.38
2022-10-18T15:17:40.616Z,28.35
2022-10-18T15:20:33.617Z,23.08
2022-10-18T15:23:37.630Z,29.77
2022-10-18T15:26:43.629Z,27.15
2022-10-18T15:29:39.608Z,29.58
2022-10-18T15:32:42.626Z,30.33
2022-10-18T15:35:32.628Z,37.03
2022-10-18T15:38:38.652Z,27.48
2022-10-18T15:41:48.987Z,38.75
2022-10-18T15:45:00.645Z,39.28
2022-10-18T15:48:07.615Z,47.75
2022-10-18T15:51:02.035Z,42.47
2022-10-18T15:54:08.622Z,44.40
2022-10-18T15:56:49.610Z,38.75
2022-10-18T15:59:38.651Z,39.95
2022-10-18T16:02:19.715Z,31.38
2022-10-18T16:05:08.642Z,36.53
2022-10-18T16:07:48.655Z,33.40
2022-10-18T16:10:42.653Z,34.55
2022-10-18T16:13:29.637Z,30.73
2022-10-18T16:16:05.713Z,37.83
2022-10-18T16:18:52.644Z,33.65
2022-10-18T16:21:35.750Z,26.15
2022-10-18T16:24:22.673Z,29.55
2022-10-18T16:26:55.792Z,30.70
2022-10-18T16:29:42.645Z,29.33
2022-10-18T16:32:22.657Z,28.88
2022-10-18T16:35:16.644Z,31.13
2022-10-18T16:38:03.669Z,35.25
2022-10-18T16:40:40.381Z,60.65
2022-10-18T16:43:34.675Z,111.65
2022-10-18T16:46:37.661Z,89.13
2022-10-18T16:49:32.639Z,69.25
2022-10-18T16:52:05.730Z,64.25
2022-10-18T16:54:52.679Z,43.45
2022-10-18T16:57:25.747Z,50.05
2022-10-18T17:00:12.656Z,57.25
2022-10-18T17:02:52.678Z,54.17
2022-10-18T17:05:46.665Z,66.25
2022-10-18T17:08:34.659Z,47.58
2022-10-18T17:11:07.840Z,49.05
2022-10-18T17:13:54.660Z,53.15
2022-10-18T17:16:31.815Z,58.42
2022-10-18T17:19:18.697Z,52.28
2022-10-18T17:21:51.757Z,59.00
2022-10-18T17:24:38.673Z,54.28
2022-10-18T17:27:11.744Z,51.78
2022-10-18T17:29:58.685Z,45.03
2022-10-18T17:32:31.785Z,49.00
2022-10-18T17:35:19.683Z,43.50
2022-10-18T17:37:56.758Z,44.60
2022-10-18T17:40:46.673Z,46.38
2022-10-18T17:43:26.767Z,41.15
2022-10-18T17:46:20.671Z,46.03
2022-10-18T17:49:14.706Z,51.83
2022-10-18T17:52:08.685Z,42.33
2022-10-18T17:55:02.697Z,44.22
2022-10-18T17:57:49.697Z,42.20
2022-10-18T18:00:32.681Z,39.75
2022-10-18T18:03:26.791Z,37.45
2022-10-18T18:06:37.676Z,35.80
2022-10-18T18:09:13.793Z,36.75
2022-10-18T18:12:00.702Z,33.63
2022-10-18T18:14:40.709Z,32.83
2022-10-18T18:20:26.691Z,45.17
2022-10-18T18:22:59.800Z,53.35
2022-10-18T18:25:46.693Z,51.17
2022-10-18T18:28:19.795Z,51.45
2022-10-18T18:31:06.710Z,52.08
2022-10-18T18:33:48.695Z,44.95
2022-10-18T18:36:42.680Z,45.40
2022-10-18T18:39:31.711Z,47.88
2022-10-18T18:42:04.903Z,42.45
2022-10-18T18:44:52.700Z,43.65
2022-10-18T18:47:27.397Z,38.03
2022-10-18T18:50:13.723Z,40.10
2022-10-18T18:52:46.815Z,42.17
2022-10-18T18:55:33.737Z,39.17
2022-10-18T18:58:06.809Z,41.05
2022-10-18T19:00:53.735Z,38.42
2022-10-18T19:03:26.859Z,38.95
2022-10-18T19:06:12.732Z,36.20
2022-10-18T19:09:00.034Z,45.13
2022-10-18T19:11:45.741Z,36.90
2022-10-18T19:14:26.156Z,40.30
2022-10-18T19:17:05.725Z,41.85
2022-10-18T19:19:47.743Z,41.83
2022-10-18T19:22:20.804Z,40.35
2022-10-18T19:25:07.719Z,37.60
2022-10-18T19:27:41.024Z,39.05
2022-10-18T19:30:27.723Z,36.53
2022-10-18T19:33:10.754Z,37.55
2022-10-18T19:36:04.733Z,42.30
2022-10-18T19:38:51.727Z,38.97
2022-10-18T19:44:19.818Z,42.75
2022-10-18T19:47:13.759Z,36.88
2022-10-18T19:50:00.742Z,38.78
2022-10-18T19:52:34.177Z,45.92
2022-10-18T19:55:20.751Z,43.45
2022-10-18T19:57:53.801Z,42.90
2022-10-18T20:00:40.776Z,38.55
2022-10-18T20:03:16.159Z,40.65
2022-10-18T20:06:07.757Z,42.42
2022-10-18T20:11:32.766Z,44.00
2022-10-18T20:14:05.836Z,39.85
2022-10-18T20:16:52.754Z,39.05
2022-10-18T20:19:25.898Z,41.25
2022-10-18T20:22:12.762Z,43.42
2022-10-18T20:24:52.764Z,43.08
2022-10-18T20:27:39.764Z,44.85
2022-10-18T20:30:12.836Z,39.88
2022-10-18T20:32:59.770Z,42.72
2022-10-18T20:35:32.853Z,53.08
2022-10-18T20:38:33.776Z,44.33
2022-10-18T20:41:33.800Z,38.60
2022-10-18T20:44:29.777Z,39.88
2022-10-18T20:47:16.761Z,43.75
2022-10-18T20:49:56.755Z,40.97
2022-10-18T20:52:43.797Z,39.97
2022-10-18T20:55:23.759Z,44.20
2022-10-18T20:58:17.789Z,42.92
2022-10-18T21:01:21.849Z,48.75
2022-10-18T21:04:03.793Z,39.45
2022-10-18T21:06:57.779Z,43.20
2022-10-18T21:09:51.763Z,48.88
2022-10-18T21:12:38.865Z,43.35
2022-10-18T21:15:19.772Z,47.42
2022-10-18T21:18:06.778Z,47.22
2022-10-18T21:20:46.792Z,50.20
2022-10-18T21:23:40.793Z,51.78
2022-10-18T21:26:29.779Z,41.83
2022-10-18T21:29:04.917Z,42.08
2022-10-18T21:31:52.804Z,37.75
2022-10-18T21:34:32.786Z,37.65
2022-10-18T21:37:19.807Z,35.22
2022-10-18T21:39:59.777Z,41.38
2022-10-18T21:42:53.807Z,38.40
2022-10-18T21:45:47.793Z,58.17
2022-10-18T21:48:41.780Z,92.15
2022-10-18T21:51:31.806Z,86.25
2022-10-18T21:54:04.864Z,64.65
2022-10-18T21:56:51.809Z,50.72
2022-10-18T21:59:31.807Z,41.25
2022-10-18T22:02:18.821Z,49.50
2022-10-18T22:04:58.804Z,48.15
2022-10-18T22:07:52.811Z,44.80
2022-10-18T22:10:40.807Z,40.28
2022-10-18T22:13:13.861Z,42.85
2022-10-18T22:16:01.825Z,40.22
2022-10-18T22:18:38.910Z,38.42
2022-10-18T22:21:26.796Z,36.63
2022-10-18T22:24:01.899Z,36.17
2022-10-18T22:26:49.800Z,39.58
2022-10-18T22:29:32.822Z,35.90
2022-10-18T22:32:19.824Z,38.97
2022-10-18T22:34:59.835Z,35.10
2022-10-18T22:37:46.827Z,35.38
2022-10-18T22:40:19.892Z,34.92
2022-10-18T22:43:06.826Z,34.17
2022-10-18T22:45:39.878Z,29.30
2022-10-18T22:48:26.830Z,29.27
2022-10-18T22:51:06.831Z,30.67
2022-10-18T22:54:00.815Z,29.38
2022-10-18T22:56:54.828Z,28.65
2022-10-18T22:59:41.827Z,30.08
2022-10-18T23:02:17.914Z,31.70
2022-10-18T23:05:04.822Z,32.38
2022-10-18T23:07:37.917Z,32.38
2022-10-18T23:10:24.843Z,30.70
2022-10-18T23:12:57.896Z,26.95
2022-10-18T23:15:46.836Z,24.77
2022-10-18T23:18:26.883Z,24.15
2022-10-18T23:21:18.858Z,24.95
2022-10-18T23:23:51.919Z,24.65
2022-10-18T23:26:39.823Z,21.63
2022-10-18T23:29:15.963Z,23.15
2022-10-18T23:32:02.851Z,23.25
2022-10-18T23:34:42.858Z,20.98
2022-10-18T23:37:37.171Z,22.67
2022-10-18T23:40:30.854Z,24.60
2022-10-18T23:43:17.859Z,28.27
2022-10-18T23:45:50.918Z,28.23
2022-10-18T23:48:37.855Z,29.10
2022-10-18T23:51:11.908Z,31.13
2022-10-18T23:53:58.851Z,29.88
2022-10-18T23:56:31.929Z,29.55
2022-10-18T23:59:18.871Z,30.98
